sensor_id;sensor_type;location;lat;lon;timestamp;pressure;altitude;pressure_sealevel;temperature;humidity
27729;BME280;15126;42.186;24.340;2023-06-14T00:00:15;98939.44;;;20.94;88.10
27729;BME280;15126;42.186;24.340;2023-06-14T00:02:42;98937.09;;;20.93;88.24
27729;BME280;15126;42.186;24.340;2023-06-14T00:05:08;98939.69;;;20.91;89.27
27729;BME280;15126;42.186;24.340;2023-06-14T00:07:38;98941.25;;;20.92;89.62
27729;BME280;15126;42.186;24.340;2023-06-14T00:10:08;98929.13;;;20.91;90.09
27729;BME280;15126;42.186;24.340;2023-06-14T00:12:38;98930.69;;;20.92;90.37
27729;BME280;15126;42.186;24.340;2023-06-14T00:15:06;98925.03;;;20.92;90.27
27729;BME280;15126;42.186;24.340;2023-06-14T00:17:35;98923.69;;;20.88;90.70
27729;BME280;15126;42.186;24.340;2023-06-14T00:20:02;98929.66;;;20.90;90.46
27729;BME280;15126;42.186;24.340;2023-06-14T00:22:32;98918.81;;;20.88;90.68
27729;BME280;15126;42.186;24.340;2023-06-14T00:24:59;98923.19;;;20.89;91.39
27729;BME280;15126;42.186;24.340;2023-06-14T00:27:26;98899.91;;;20.68;91.54
27729;BME280;15126;42.186;24.340;2023-06-14T00:29:54;98924.47;;;20.88;91.46
27729;BME280;15126;42.186;24.340;2023-06-14T00:32:22;98918.25;;;20.73;92.34
27729;BME280;15126;42.186;24.340;2023-06-14T00:34:51;98931.66;;;20.78;92.21
27729;BME280;15126;42.186;24.340;2023-06-14T00:37:17;98931.13;;;20.74;92.82
27729;BME280;15126;42.186;24.340;2023-06-14T00:39:44;98921.84;;;20.68;93.13
27729;BME280;15126;42.186;24.340;2023-06-14T00:42:11;98921.28;;;20.64;93.84
27729;BME280;15126;42.186;24.340;2023-06-14T00:44:38;98918.97;;;20.62;94.01
27729;BME280;15126;42.186;24.340;2023-06-14T00:47:06;98916.63;;;20.61;93.75
27729;BME280;15126;42.186;24.340;2023-06-14T00:49:33;98920.78;;;20.60;93.85
27729;BME280;15126;42.186;24.340;2023-06-14T00:52:00;98902.97;;;20.54;93.85
27729;BME280;15126;42.186;24.340;2023-06-14T00:54:27;98909.41;;;20.54;93.92
27729;BME280;15126;42.186;24.340;2023-06-14T00:56:54;98914.34;;;20.59;93.75
27729;BME280;15126;42.186;24.340;2023-06-14T00:59:21;98891.84;;;20.45;93.57
27729;BME280;15126;42.186;24.340;2023-06-14T01:01:48;98906.31;;;20.58;93.72
27729;BME280;15126;42.186;24.340;2023-06-14T01:04:16;98917.41;;;20.61;93.14
27729;BME280;15126;42.186;24.340;2023-06-14T01:06:49;98902.16;;;20.48;93.25
27729;BME280;15126;42.186;24.340;2023-06-14T01:09:26;98908.91;;;20.56;93.38
27729;BME280;15126;42.186;24.340;2023-06-14T01:11:58;98910.16;;;20.55;93.44
27729;BME280;15126;42.186;24.340;2023-06-14T01:14:27;98905.81;;;20.54;93.23
27729;BME280;15126;42.186;24.340;2023-06-14T01:16:56;98910.94;;;20.55;93.51
27729;BME280;15126;42.186;24.340;2023-06-14T01:19:27;98915.56;;;20.53;93.61
27729;BME280;15126;42.186;24.340;2023-06-14T01:21:55;98903.47;;;20.52;93.74
27729;BME280;15126;42.186;24.340;2023-06-14T01:24:23;98909.66;;;20.51;93.59
27729;BME280;15126;42.186;24.340;2023-06-14T01:26:58;98911.22;;;20.52;93.66
27729;BME280;15126;42.186;24.340;2023-06-14T01:29:26;98914.56;;;20.56;93.26
27729;BME280;15126;42.186;24.340;2023-06-14T01:31:58;98917.91;;;20.54;93.43
27729;BME280;15126;42.186;24.340;2023-06-14T01:34:25;98910.16;;;20.55;93.27
27729;BME280;15126;42.186;24.340;2023-06-14T01:36:53;98911.22;;;20.52;93.67
27729;BME280;15126;42.186;24.340;2023-06-14T01:39:21;98908.09;;;20.50;93.86
27729;BME280;15126;42.186;24.340;2023-06-14T01:41:51;98910.47;;;20.57;93.53
27729;BME280;15126;42.186;24.340;2023-06-14T01:44:19;98908.38;;;20.57;93.58
27729;BME280;15126;42.186;24.340;2023-06-14T01:46:47;98902.72;;;20.57;93.29
27729;BME280;15126;42.186;24.340;2023-06-14T01:49:14;98900.94;;;20.60;92.98
27729;BME280;15126;42.186;24.340;2023-06-14T01:51:41;98900.69;;;20.63;93.15
27729;BME280;15126;42.186;24.340;2023-06-14T01:54:08;98906.31;;;20.58;92.82
27729;BME280;15126;42.186;24.340;2023-06-14T01:56:34;98908.91;;;20.56;93.19
27729;BME280;15126;42.186;24.340;2023-06-14T01:59:02;98898.09;;;20.60;93.02
27729;BME280;15126;42.186;24.340;2023-06-14T02:01:29;98900.63;;;20.52;93.22
27729;BME280;15126;42.186;24.340;2023-06-14T02:03:56;98897.78;;;20.52;93.13
27729;BME280;15126;42.186;24.340;2023-06-14T02:06:24;98880.22;;;20.37;93.18
27729;BME280;15126;42.186;24.340;2023-06-14T02:08:52;98909.91;;;20.53;93.47
27729;BME280;15126;42.186;24.340;2023-06-14T02:11:19;98902.72;;;20.52;93.32
27729;BME280;15126;42.186;24.340;2023-06-14T02:13:46;98879.44;;;20.37;93.69
27729;BME280;15126;42.186;24.340;2023-06-14T02:16:14;98913.75;;;20.50;93.83
27729;BME280;15126;42.186;24.340;2023-06-14T02:18:42;98908.38;;;20.52;93.53
27729;BME280;15126;42.186;24.340;2023-06-14T02:21:09;98906.06;;;20.56;93.34
27729;BME280;15126;42.186;24.340;2023-06-14T02:23:36;98905.53;;;20.57;93.48
27729;BME280;15126;42.186;24.340;2023-06-14T02:26:02;98905.81;;;20.54;93.73
27729;BME280;15126;42.186;24.340;2023-06-14T02:28:29;98902.16;;;20.48;93.65
27729;BME280;15126;42.186;24.340;2023-06-14T02:30:56;98905.81;;;20.54;93.37
27729;BME280;15126;42.186;24.340;2023-06-14T02:33:24;98911.50;;;20.59;93.42
27729;BME280;15126;42.186;24.340;2023-06-14T02:35:51;98906.53;;;20.43;92.94
27729;BME280;15126;42.186;24.340;2023-06-14T02:38:18;98920.75;;;20.54;92.90
27729;BME280;15126;42.186;24.340;2023-06-14T02:40:45;98921.50;;;20.55;93.40
27729;BME280;15126;42.186;24.340;2023-06-14T02:43:12;98921.25;;;20.53;93.93
27729;BME280;15126;42.186;24.340;2023-06-14T02:45:39;98926.66;;;20.51;94.27
27729;BME280;15126;42.186;24.340;2023-06-14T02:48:05;98920.72;;;20.49;93.73
27729;BME280;15126;42.186;24.340;2023-06-14T02:50:34;98934.13;;;20.54;92.94
27729;BME280;15126;42.186;24.340;2023-06-14T02:53:00;98928.44;;;20.48;92.80
27729;BME280;15126;42.186;24.340;2023-06-14T02:55:28;98937.72;;;20.49;93.03
27729;BME280;15126;42.186;24.340;2023-06-14T02:57:55;98931.31;;;20.54;93.00
27729;BME280;15126;42.186;24.340;2023-06-14T03:00:31;98923.03;;;20.50;93.34
27729;BME280;15126;42.186;24.340;2023-06-14T03:03:00;98942.38;;;20.52;93.51
27729;BME280;15126;42.186;24.340;2023-06-14T03:05:40;98938.75;;;20.46;94.31
27729;BME280;15126;42.186;24.340;2023-06-14T03:08:11;98944.94;;;20.50;93.85
27729;BME280;15126;42.186;24.340;2023-06-14T03:10:42;98939.53;;;20.52;94.04
27729;BME280;15126;42.186;24.340;2023-06-14T03:13:09;98950.34;;;20.53;92.75
27729;BME280;15126;42.186;24.340;2023-06-14T03:15:36;98945.69;;;20.50;93.35
27729;BME280;15126;42.186;24.340;2023-06-14T03:18:03;98944.69;;;20.53;93.69
27729;BME280;15126;42.186;24.340;2023-06-14T03:20:31;98945.47;;;20.54;93.18
27729;BME280;15126;42.186;24.340;2023-06-14T03:23:00;98942.91;;;20.56;93.06
27729;BME280;15126;42.186;24.340;2023-06-14T03:25:27;98955.25;;;20.53;92.78
27729;BME280;15126;42.186;24.340;2023-06-14T03:27:54;98941.06;;;20.47;93.15
27729;BME280;15126;42.186;24.340;2023-06-14T03:30:21;98939.22;;;20.44;93.52
27729;BME280;15126;42.186;24.340;2023-06-14T03:32:48;98950.06;;;20.46;93.09
27729;BME280;15126;42.186;24.340;2023-06-14T03:35:17;98951.59;;;20.47;92.75
27729;BME280;15126;42.186;24.340;2023-06-14T03:37:44;98954.72;;;20.49;92.72
27729;BME280;15126;42.186;24.340;2023-06-14T03:40:15;98949.56;;;20.53;92.71
27729;BME280;15126;42.186;24.340;2023-06-14T03:42:42;98959.13;;;20.55;93.16
27729;BME280;15126;42.186;24.340;2023-06-14T03:45:09;98960.91;;;20.53;93.50
27729;BME280;15126;42.186;24.340;2023-06-14T03:47:36;98962.97;;;20.52;94.05
27729;BME280;15126;42.186;24.340;2023-06-14T03:50:03;98963.78;;;20.58;93.19
27729;BME280;15126;42.186;24.340;2023-06-14T03:52:31;98967.19;;;20.68;93.38
27729;BME280;15126;42.186;24.340;2023-06-14T03:54:58;98964.91;;;20.77;93.24
27729;BME280;15126;42.186;24.340;2023-06-14T03:57:27;98962.34;;;20.85;93.66
27729;BME280;15126;42.186;24.340;2023-06-14T03:59:53;98968.59;;;20.95;92.24
27729;BME280;15126;42.186;24.340;2023-06-14T04:02:20;98975.53;;;20.99;91.71
27729;BME280;15126;42.186;24.340;2023-06-14T04:04:47;98976.09;;;21.03;90.75
27729;BME280;15126;42.186;24.340;2023-06-14T04:07:14;98976.09;;;21.03;90.98
27729;BME280;15126;42.186;24.340;2023-06-14T04:09:44;98977.13;;;21.00;91.45
27729;BME280;15126;42.186;24.340;2023-06-14T04:12:11;98975.84;;;21.07;90.92
27729;BME280;15126;42.186;24.340;2023-06-14T04:14:40;98966.84;;;21.08;90.75
27729;BME280;15126;42.186;24.340;2023-06-14T04:17:07;98971.47;;;21.06;90.39
27729;BME280;15126;42.186;24.340;2023-06-14T04:19:34;98974.00;;;20.98;90.46
27729;BME280;15126;42.186;24.340;2023-06-14T04:22:01;98970.91;;;20.96;90.99
27729;BME280;15126;42.186;24.340;2023-06-14T04:24:28;98970.91;;;20.96;90.90
27729;BME280;15126;42.186;24.340;2023-06-14T04:26:58;98970.84;;;20.85;91.09
27729;BME280;15126;42.186;24.340;2023-06-14T04:29:26;98976.25;;;20.83;90.93
27729;BME280;15126;42.186;24.340;2023-06-14T04:31:56;98963.63;;;20.78;91.00
27729;BME280;15126;42.186;24.340;2023-06-14T04:34:28;98976.25;;;20.83;90.76
27729;BME280;15126;42.186;24.340;2023-06-14T04:36:57;98980.13;;;20.80;91.35
27729;BME280;15126;42.186;24.340;2023-06-14T04:39:25;98968.25;;;20.76;91.60
27729;BME280;15126;42.186;24.340;2023-06-14T04:41:53;98974.16;;;20.72;92.22
27729;BME280;15126;42.186;24.340;2023-06-14T04:44:23;98965.66;;;20.72;92.06
27729;BME280;15126;42.186;24.340;2023-06-14T04:46:56;98983.75;;;20.86;92.17
27729;BME280;15126;42.186;24.340;2023-06-14T04:49:24;98990.97;;;20.87;91.44
27729;BME280;15126;42.186;24.340;2023-06-14T04:51:51;98994.06;;;20.89;91.35
27729;BME280;15126;42.186;24.340;2023-06-14T04:54:23;98997.16;;;20.91;91.39
27729;BME280;15126;42.186;24.340;2023-06-14T04:56:51;98989.44;;;20.92;91.90
27729;BME280;15126;42.186;24.340;2023-06-14T04:59:18;98983.56;;;21.01;91.88
27729;BME280;15126;42.186;24.340;2023-06-14T05:01:45;98983.88;;;21.08;91.88
27729;BME280;15126;42.186;24.340;2023-06-14T05:04:15;98993.94;;;21.15;91.70
27729;BME280;15126;42.186;24.340;2023-06-14T05:06:42;98983.88;;;21.14;91.43
27729;BME280;15126;42.186;24.340;2023-06-14T05:09:10;98995.25;;;21.19;90.01
27729;BME280;15126;42.186;24.340;2023-06-14T05:11:37;99003.25;;;21.21;89.56
27729;BME280;15126;42.186;24.340;2023-06-14T05:14:04;99006.63;;;21.30;89.22
27729;BME280;15126;42.186;24.340;2023-06-14T05:16:31;99003.81;;;21.36;89.33
27729;BME280;15126;42.186;24.340;2023-06-14T05:18:58;99009.50;;;21.47;90.65
27729;BME280;15126;42.186;24.340;2023-06-14T05:21:26;99012.88;;;21.51;90.67
27729;BME280;15126;42.186;24.340;2023-06-14T05:23:53;99016.75;;;21.65;90.05
27729;BME280;15126;42.186;24.340;2023-06-14T05:26:21;99023.25;;;21.76;87.95
27729;BME280;15126;42.186;24.340;2023-06-14T05:28:48;99017.81;;;21.84;88.27
27729;BME280;15126;42.186;24.340;2023-06-14T05:31:15;99030.50;;;22.00;89.22
27729;BME280;15126;42.186;24.340;2023-06-14T05:33:42;99028.19;;;21.98;86.46
27729;BME280;15126;42.186;24.340;2023-06-14T05:36:09;99029.47;;;22.14;85.90
27729;BME280;15126;42.186;24.340;2023-06-14T05:38:37;99032.06;;;22.17;85.55
27729;BME280;15126;42.186;24.340;2023-06-14T05:41:04;99026.38;;;22.34;84.49
27729;BME280;15126;42.186;24.340;2023-06-14T05:43:30;99029.69;;;22.49;84.04
27729;BME280;15126;42.186;24.340;2023-06-14T05:45:57;99026.06;;;22.65;83.90
27729;BME280;15126;42.186;24.340;2023-06-14T05:48:24;99036.91;;;22.72;82.25
27729;BME280;15126;42.186;24.340;2023-06-14T05:50:51;99035.53;;;23.01;82.46
27729;BME280;15126;42.186;24.340;2023-06-14T05:53:17;99037.53;;;23.17;82.16
27729;BME280;15126;42.186;24.340;2023-06-14T05:55:46;99037.28;;;23.21;79.25
27729;BME280;15126;42.186;24.340;2023-06-14T05:58:12;99030.28;;;23.22;78.24
27729;BME280;15126;42.186;24.340;2023-06-14T06:00:39;99040.56;;;23.41;78.75
27729;BME280;15126;42.186;24.340;2023-06-14T06:03:06;99044.94;;;23.48;79.09
27729;BME280;15126;42.186;24.340;2023-06-14T06:05:34;99037.94;;;23.49;78.33
27729;BME280;15126;42.186;24.340;2023-06-14T06:08:01;99025.75;;;23.48;78.39
27729;BME280;15126;42.186;24.340;2023-06-14T06:10:28;99034.53;;;23.56;79.16
27729;BME280;15126;42.186;24.340;2023-06-14T06:12:56;99046.88;;;23.69;80.58
27729;BME280;15126;42.186;24.340;2023-06-14T06:15:23;99041.91;;;23.76;77.25
27729;BME280;15126;42.186;24.340;2023-06-14T06:17:50;99043.00;;;23.73;76.16
27729;BME280;15126;42.186;24.340;2023-06-14T06:20:17;99042.13;;;23.83;78.39
27729;BME280;15126;42.186;24.340;2023-06-14T06:22:44;99037.69;;;23.88;77.94
27729;BME280;15126;42.186;24.340;2023-06-14T06:25:11;99034.03;;;23.93;77.07
27729;BME280;15126;42.186;24.340;2023-06-14T06:27:38;99035.22;;;24.03;76.10
27729;BME280;15126;42.186;24.340;2023-06-14T06:30:08;99030.31;;;24.09;75.07
27729;BME280;15126;42.186;24.340;2023-06-14T06:32:34;99040.56;;;24.23;75.43
27729;BME280;15126;42.186;24.340;2023-06-14T06:35:01;99030.91;;;24.32;75.73
27729;BME280;15126;42.186;24.340;2023-06-14T06:37:31;99040.34;;;24.45;72.42
27729;BME280;15126;42.186;24.340;2023-06-14T06:39:58;99037.28;;;24.43;70.80
27729;BME280;15126;42.186;24.340;2023-06-14T06:42:25;99035.50;;;24.64;76.00
27729;BME280;15126;42.186;24.340;2023-06-14T06:44:51;99046.72;;;24.87;74.50
27729;BME280;15126;42.186;24.340;2023-06-14T06:47:19;99039.44;;;25.10;69.97
27729;BME280;15126;42.186;24.340;2023-06-14T06:49:46;99039.00;;;25.43;70.77
27729;BME280;15126;42.186;24.340;2023-06-14T06:52:13;99040.41;;;25.55;73.27
27729;BME280;15126;42.186;24.340;2023-06-14T06:54:40;99036.16;;;25.80;69.67
27729;BME280;15126;42.186;24.340;2023-06-14T06:57:07;99038.72;;;25.84;67.91
27729;BME280;15126;42.186;24.340;2023-06-14T06:59:35;99035.19;;;26.10;68.90
27729;BME280;15126;42.186;24.340;2023-06-14T07:02:03;99045.69;;;26.20;66.49
27729;BME280;15126;42.186;24.340;2023-06-14T07:04:31;99047.16;;;26.27;66.18
27729;BME280;15126;42.186;24.340;2023-06-14T07:06:58;99038.97;;;26.18;66.17
27729;BME280;15126;42.186;24.340;2023-06-14T07:09:25;99044.47;;;26.16;65.61
27729;BME280;15126;42.186;24.340;2023-06-14T07:11:51;99048.38;;;26.13;64.58
27729;BME280;15126;42.186;24.340;2023-06-14T07:14:18;99039.13;;;26.07;64.89
27729;BME280;15126;42.186;24.340;2023-06-14T07:16:48;99042.41;;;25.97;65.11
27729;BME280;15126;42.186;24.340;2023-06-14T07:19:15;99037.66;;;25.68;63.75
27729;BME280;15126;42.186;24.340;2023-06-14T07:21:43;99041.50;;;25.71;65.75
27729;BME280;15126;42.186;24.340;2023-06-14T07:24:10;99040.66;;;25.57;65.65
27729;BME280;15126;42.186;24.340;2023-06-14T07:26:37;99042.97;;;25.59;67.37
27729;BME280;15126;42.186;24.340;2023-06-14T07:29:04;99040.88;;;25.59;68.18
27729;BME280;15126;42.186;24.340;2023-06-14T07:31:30;99041.13;;;25.61;68.14
27729;BME280;15126;42.186;24.340;2023-06-14T07:33:57;99042.59;;;25.49;66.24
27729;BME280;15126;42.186;24.340;2023-06-14T07:36:24;99047.75;;;25.51;67.62
27729;BME280;15126;42.186;24.340;2023-06-14T07:38:52;99045.13;;;25.53;69.42
27729;BME280;15126;42.186;24.340;2023-06-14T07:41:19;99047.88;;;25.39;68.37
27729;BME280;15126;42.186;24.340;2023-06-14T07:43:46;99051.34;;;25.32;68.01
27729;BME280;15126;42.186;24.340;2023-06-14T07:46:12;99052.72;;;25.44;69.53
27729;BME280;15126;42.186;24.340;2023-06-14T07:48:40;99056.03;;;25.54;68.40
27729;BME280;15126;42.186;24.340;2023-06-14T07:51:07;99050.91;;;25.66;69.25
27729;BME280;15126;42.186;24.340;2023-06-14T07:53:33;99051.81;;;25.74;68.83
27729;BME280;15126;42.186;24.340;2023-06-14T07:56:02;99061.25;;;25.87;69.69
27729;BME280;15126;42.186;24.340;2023-06-14T07:58:29;99051.59;;;25.90;69.44
27729;BME280;15126;42.186;24.340;2023-06-14T08:00:55;99055.09;;;25.83;67.04
27729;BME280;15126;42.186;24.340;2023-06-14T08:03:22;99061.94;;;25.93;67.31
27729;BME280;15126;42.186;24.340;2023-06-14T08:05:49;99060.25;;;26.03;67.76
27729;BME280;15126;42.186;24.340;2023-06-14T08:08:16;99060.13;;;26.09;63.98
27729;BME280;15126;42.186;24.340;2023-06-14T08:10:44;99060.69;;;26.08;62.08
27729;BME280;15126;42.186;24.340;2023-06-14T08:13:12;99066.38;;;26.26;69.67
27729;BME280;15126;42.186;24.340;2023-06-14T08:15:39;99070.44;;;26.49;67.96
27729;BME280;15126;42.186;24.340;2023-06-14T08:18:06;99075.38;;;26.49;64.69
27729;BME280;15126;42.186;24.340;2023-06-14T08:20:32;99071.22;;;26.63;63.43
27729;BME280;15126;42.186;24.340;2023-06-14T08:23:00;99071.50;;;26.78;63.76
27729;BME280;15126;42.186;24.340;2023-06-14T08:25:27;99076.13;;;26.94;65.74
27729;BME280;15126;42.186;24.340;2023-06-14T08:27:54;99053.34;;;26.89;64.33
27729;BME280;15126;42.186;24.340;2023-06-14T08:30:22;99074.75;;;26.69;61.09
27729;BME280;15126;42.186;24.340;2023-06-14T08:32:49;99076.44;;;26.78;63.27
27729;BME280;15126;42.186;24.340;2023-06-14T08:35:17;99064.63;;;26.55;62.82
27729;BME280;15126;42.186;24.340;2023-06-14T08:37:43;99066.91;;;26.56;62.48
27729;BME280;15126;42.186;24.340;2023-06-14T08:40:18;99073.41;;;26.57;63.15
27729;BME280;15126;42.186;24.340;2023-06-14T08:42:48;99080.88;;;26.47;63.64
27729;BME280;15126;42.186;24.340;2023-06-14T08:45:16;99081.63;;;26.47;61.24
27729;BME280;15126;42.186;24.340;2023-06-14T08:47:45;99075.69;;;26.45;64.24
27729;BME280;15126;42.186;24.340;2023-06-14T08:50:20;99077.72;;;26.32;63.47
27729;BME280;15126;42.186;24.340;2023-06-14T08:52:48;99075.66;;;26.32;63.38
27729;BME280;15126;42.186;24.340;2023-06-14T08:55:18;99070.75;;;26.14;62.81
27729;BME280;15126;42.186;24.340;2023-06-14T08:57:46;99061.31;;;26.00;62.98
27729;BME280;15126;42.186;24.340;2023-06-14T09:00:15;99069.97;;;26.14;65.23
27729;BME280;15126;42.186;24.340;2023-06-14T09:02:42;99057.59;;;26.24;64.22
27729;BME280;15126;42.186;24.340;2023-06-14T09:05:11;99061.16;;;26.43;69.13
27729;BME280;15126;42.186;24.340;2023-06-14T09:07:39;99062.97;;;26.59;66.89
27729;BME280;15126;42.186;24.340;2023-06-14T09:10:08;99056.72;;;26.74;63.19
27729;BME280;15126;42.186;24.340;2023-06-14T09:12:36;99060.25;;;26.93;66.59
27729;BME280;15126;42.186;24.340;2023-06-14T09:15:04;99065.13;;;27.11;65.92
27729;BME280;15126;42.186;24.340;2023-06-14T09:17:33;99058.19;;;27.33;64.42
27729;BME280;15126;42.186;24.340;2023-06-14T09:20:01;99058.38;;;27.48;64.03
27729;BME280;15126;42.186;24.340;2023-06-14T09:22:33;99063.78;;;27.52;60.40
27729;BME280;15126;42.186;24.340;2023-06-14T09:25:00;99064.00;;;27.54;60.25
27729;BME280;15126;42.186;24.340;2023-06-14T09:27:27;99054.09;;;27.55;59.47
27729;BME280;15126;42.186;24.340;2023-06-14T09:29:55;99038.91;;;27.34;58.04
27729;BME280;15126;42.186;24.340;2023-06-14T09:32:22;99043.19;;;27.27;60.63
27729;BME280;15126;42.186;24.340;2023-06-14T09:34:49;99062.56;;;27.34;59.97
27729;BME280;15126;42.186;24.340;2023-06-14T09:37:27;99049.38;;;27.31;58.99
27729;BME280;15126;42.186;24.340;2023-06-14T09:39:56;99049.03;;;27.22;56.85
27729;BME280;15126;42.186;24.340;2023-06-14T09:42:23;99049.28;;;26.97;57.54
27729;BME280;15126;42.186;24.340;2023-06-14T09:44:52;99046.72;;;26.94;60.40
27729;BME280;15126;42.186;24.340;2023-06-14T09:47:19;99045.53;;;27.02;57.48
27729;BME280;15126;42.186;24.340;2023-06-14T09:49:46;99044.00;;;27.14;57.22
27729;BME280;15126;42.186;24.340;2023-06-14T09:52:15;99032.94;;;27.32;63.22
27729;BME280;15126;42.186;24.340;2023-06-14T09:54:44;99032.22;;;27.65;61.86
27729;BME280;15126;42.186;24.340;2023-06-14T09:57:14;99032.28;;;27.86;58.71
27729;BME280;15126;42.186;24.340;2023-06-14T09:59:43;99037.78;;;27.50;55.53
27729;BME280;15126;42.186;24.340;2023-06-14T10:02:14;99037.88;;;27.57;55.53
27729;BME280;15126;42.186;24.340;2023-06-14T10:04:48;99030.72;;;27.64;58.35
27729;BME280;15126;42.186;24.340;2023-06-14T10:07:19;99022.47;;;27.81;60.55
27729;BME280;15126;42.186;24.340;2023-06-14T10:09:46;99023.78;;;27.93;58.14
27729;BME280;15126;42.186;24.340;2023-06-14T10:12:17;99022.56;;;28.22;56.28
27729;BME280;15126;42.186;24.340;2023-06-14T10:14:48;99015.91;;;28.27;57.23
27729;BME280;15126;42.186;24.340;2023-06-14T10:17:22;99021.63;;;28.48;56.78
27729;BME280;15126;42.186;24.340;2023-06-14T10:19:55;99009.53;;;28.63;56.24
27729;BME280;15126;42.186;24.340;2023-06-14T10:22:32;99010.34;;;28.71;57.44
27729;BME280;15126;42.186;24.340;2023-06-14T10:25:02;99011.69;;;28.70;52.30
27729;BME280;15126;42.186;24.340;2023-06-14T10:27:30;99010.88;;;28.98;54.33
27729;BME280;15126;42.186;24.340;2023-06-14T10:30:07;98990.88;;;28.77;55.91
27729;BME280;15126;42.186;24.340;2023-06-14T10:32:34;99010.50;;;28.93;54.41
27729;BME280;15126;42.186;24.340;2023-06-14T10:35:04;99008.59;;;28.96;54.37
27729;BME280;15126;42.186;24.340;2023-06-14T10:37:32;98997.41;;;28.85;55.29
27729;BME280;15126;42.186;24.340;2023-06-14T10:39:59;99003.91;;;28.78;52.89
27729;BME280;15126;42.186;24.340;2023-06-14T10:42:28;98997.06;;;28.88;54.64
27729;BME280;15126;42.186;24.340;2023-06-14T10:45:00;98983.88;;;28.65;55.12
27729;BME280;15126;42.186;24.340;2023-06-14T10:47:28;98976.38;;;28.62;53.58
27729;BME280;15126;42.186;24.340;2023-06-14T10:49:57;98984.34;;;28.76;55.55
27729;BME280;15126;42.186;24.340;2023-06-14T10:52:26;98979.56;;;28.51;53.09
27729;BME280;15126;42.186;24.340;2023-06-14T10:55:08;98975.50;;;28.67;53.95
27729;BME280;15126;42.186;24.340;2023-06-14T10:57:41;98978.75;;;28.43;54.77
27729;BME280;15126;42.186;24.340;2023-06-14T11:00:11;98975.25;;;28.37;54.83
27729;BME280;15126;42.186;24.340;2023-06-14T11:03:11;98980.94;;;28.29;53.61
27729;BME280;15126;42.186;24.340;2023-06-14T11:05:49;98974.81;;;28.32;54.44
27729;BME280;15126;42.186;24.340;2023-06-14T11:08:39;98976.53;;;28.56;55.23
27729;BME280;15126;42.186;24.340;2023-06-14T11:11:08;98962.81;;;28.62;52.26
27729;BME280;15126;42.186;24.340;2023-06-14T11:13:38;98966.16;;;28.74;53.63
27729;BME280;15126;42.186;24.340;2023-06-14T11:16:12;98959.72;;;28.60;52.76
27729;BME280;15126;42.186;24.340;2023-06-14T11:18:39;98962.03;;;28.62;53.13
27729;BME280;15126;42.186;24.340;2023-06-14T11:21:06;98957.41;;;28.59;51.38
27729;BME280;15126;42.186;24.340;2023-06-14T11:23:34;98962.78;;;28.34;51.73
27729;BME280;15126;42.186;24.340;2023-06-14T11:26:01;98960.03;;;28.49;53.56
27729;BME280;15126;42.186;24.340;2023-06-14T11:28:36;98944.59;;;28.60;53.14
27729;BME280;15126;42.186;24.340;2023-06-14T11:31:04;98950.66;;;28.77;51.29
27729;BME280;15126;42.186;24.340;2023-06-14T11:33:32;98951.09;;;28.60;54.15
27729;BME280;15126;42.186;24.340;2023-06-14T11:36:02;98954.56;;;28.59;54.08
27729;BME280;15126;42.186;24.340;2023-06-14T11:38:29;98951.47;;;28.57;53.00
27729;BME280;15126;42.186;24.340;2023-06-14T11:40:59;98953.84;;;28.66;53.27
27729;BME280;15126;42.186;24.340;2023-06-14T11:43:26;98948.38;;;28.75;53.92
27729;BME280;15126;42.186;24.340;2023-06-14T11:45:54;98944.31;;;28.71;51.27
27729;BME280;15126;42.186;24.340;2023-06-14T11:48:21;98941.94;;;28.62;52.02
27729;BME280;15126;42.186;24.340;2023-06-14T11:50:51;98946.84;;;28.54;53.78
27729;BME280;15126;42.186;24.340;2023-06-14T11:53:18;98943.56;;;28.50;54.70
27729;BME280;15126;42.186;24.340;2023-06-14T11:55:45;98914.69;;;28.48;54.12
27729;BME280;15126;42.186;24.340;2023-06-14T11:58:13;98933.66;;;28.51;54.19
27729;BME280;15126;42.186;24.340;2023-06-14T12:00:41;98937.84;;;28.50;52.40
27729;BME280;15126;42.186;24.340;2023-06-14T12:03:08;98938.97;;;28.47;54.56
27729;BME280;15126;42.186;24.340;2023-06-14T12:05:35;98933.41;;;28.49;52.69
27729;BME280;15126;42.186;24.340;2023-06-14T12:08:03;98931.47;;;28.64;54.45
27729;BME280;15126;42.186;24.340;2023-06-14T12:10:39;98932.41;;;28.39;51.21
27729;BME280;15126;42.186;24.340;2023-06-14T12:13:06;98925.06;;;28.58;54.70
27729;BME280;15126;42.186;24.340;2023-06-14T12:15:35;98916.47;;;28.58;52.21
27729;BME280;15126;42.186;24.340;2023-06-14T12:18:05;98919.88;;;28.57;54.79
27729;BME280;15126;42.186;24.340;2023-06-14T12:20:33;98901.16;;;28.56;52.68
27729;BME280;15126;42.186;24.340;2023-06-14T12:23:04;98902.78;;;28.72;51.85
27729;BME280;15126;42.186;24.340;2023-06-14T12:25:33;98911.63;;;28.81;52.15
27729;BME280;15126;42.186;24.340;2023-06-14T12:28:04;98902.84;;;28.87;54.21
27729;BME280;15126;42.186;24.340;2023-06-14T12:30:31;98889.88;;;28.93;51.44
27729;BME280;15126;42.186;24.340;2023-06-14T12:32:58;98901.28;;;29.22;51.79
27729;BME280;15126;42.186;24.340;2023-06-14T12:35:26;98902.28;;;29.24;52.17
27729;BME280;15126;42.186;24.340;2023-06-14T12:37:52;98904.22;;;29.29;51.45
27729;BME280;15126;42.186;24.340;2023-06-14T12:40:20;98867.25;;;28.82;50.58
27729;BME280;15126;42.186;24.340;2023-06-14T12:42:47;98898.34;;;29.07;51.21
27729;BME280;15126;42.186;24.340;2023-06-14T12:45:14;98893.75;;;29.04;52.83
27729;BME280;15126;42.186;24.340;2023-06-14T12:47:41;98878.06;;;29.05;51.92
27729;BME280;15126;42.186;24.340;2023-06-14T12:50:08;98885.38;;;29.21;52.59
27729;BME280;15126;42.186;24.340;2023-06-14T12:52:35;98888.41;;;29.08;52.11
27729;BME280;15126;42.186;24.340;2023-06-14T12:55:04;98897.25;;;29.17;51.58